createdAt,value
2019-05-12T00:00:12.866Z,52.40
2019-05-12T00:02:48.469Z,52.30
2019-05-12T00:05:21.961Z,52.30
2019-05-12T00:07:55.856Z,52.40
2019-05-12T00:10:29.689Z,52.40
2019-05-12T00:13:03.399Z,52.50
2019-05-12T00:15:38.519Z,52.50
2019-05-12T00:18:12.601Z,53.30
2019-05-12T00:20:47.679Z,52.50
2019-05-12T00:23:26.886Z,52.50
2019-05-12T00:25:58.746Z,52.50
2019-05-12T00:28:32.409Z,52.40
2019-05-12T00:31:08.244Z,52.50
2019-05-12T00:33:41.663Z,52.40
2019-05-12T00:36:15.414Z,52.50
2019-05-12T00:38:49.306Z,52.50
2019-05-12T00:41:22.990Z,52.60
2019-05-12T00:43:58.252Z,52.70
2019-05-12T00:46:32.079Z,52.60
2019-05-12T00:49:07.972Z,52.70
2019-05-12T00:51:41.290Z,52.80
2019-05-12T00:54:15.018Z,52.80
2019-05-12T00:56:48.891Z,52.80
2019-05-12T00:59:22.631Z,52.90
2019-05-12T01:01:58.498Z,52.80
2019-05-12T01:04:31.748Z,52.90
2019-05-12T01:07:05.569Z,52.80
2019-05-12T01:09:39.586Z,52.90
2019-05-12T01:12:13.435Z,53.00
2019-05-12T01:14:47.793Z,53.10
2019-05-12T01:17:21.746Z,53.30
2019-05-12T01:19:58.296Z,53.40
2019-05-12T01:22:31.085Z,53.40
2019-05-12T01:25:08.352Z,53.40
2019-05-12T01:27:41.330Z,53.50
2019-05-12T01:30:17.932Z,53.60
2019-05-12T01:32:51.099Z,53.60
2019-05-12T01:35:24.819Z,53.70
2019-05-12T01:38:01.480Z,53.80
2019-05-12T01:40:34.165Z,53.70
2019-05-12T01:43:08.858Z,53.80
2019-05-12T01:45:43.101Z,53.90
2019-05-12T01:48:18.322Z,53.90
2019-05-12T01:50:52.388Z,54.00
2019-05-12T01:53:28.493Z,54.00
2019-05-12T01:56:01.920Z,54.10
2019-05-12T01:58:38.034Z,54.20
2019-05-12T02:01:11.188Z,54.20
2019-05-12T02:03:45.007Z,54.20
2019-05-12T02:06:18.712Z,54.20
2019-05-12T02:08:52.468Z,54.20
2019-05-12T02:11:28.711Z,54.30
2019-05-12T02:14:04.455Z,54.30
2019-05-12T02:16:38.842Z,54.40
2019-05-12T02:19:12.938Z,54.50
2019-05-12T02:21:48.753Z,54.50
2019-05-12T02:24:27.024Z,54.50
2019-05-12T02:26:58.203Z,54.50
2019-05-12T02:29:31.839Z,54.50
2019-05-12T02:32:05.955Z,54.50
2019-05-12T02:34:39.928Z,54.60
2019-05-12T02:37:15.310Z,54.40
2019-05-12T02:39:49.290Z,54.40
2019-05-12T02:42:24.379Z,54.40
2019-05-12T02:44:58.454Z,54.40
2019-05-12T02:47:34.672Z,54.40
2019-05-12T02:50:08.151Z,54.40
2019-05-12T02:52:44.273Z,54.40
2019-05-12T02:55:17.743Z,54.30
2019-05-12T02:57:55.079Z,54.40
2019-05-12T03:00:29.805Z,54.30
2019-05-12T03:03:05.707Z,54.30
2019-05-12T03:05:40.733Z,54.50
2019-05-12T03:08:15.316Z,54.30
2019-05-12T03:10:54.638Z,54.40
2019-05-12T03:13:27.174Z,54.20
2019-05-12T03:16:04.539Z,54.30
2019-05-12T03:18:36.416Z,54.40
2019-05-12T03:21:10.362Z,54.40
2019-05-12T03:23:44.889Z,54.30
2019-05-12T03:26:19.175Z,54.30
2019-05-12T03:28:55.506Z,54.40
2019-05-12T03:31:31.415Z,54.50
2019-05-12T03:34:09.393Z,54.50
2019-05-12T03:36:42.917Z,54.40
2019-05-12T03:39:15.131Z,54.50
2019-05-12T03:41:49.099Z,54.60
2019-05-12T03:44:25.234Z,54.70
2019-05-12T03:46:58.441Z,54.70
2019-05-12T03:49:34.803Z,54.70
2019-05-12T03:52:07.526Z,54.70
2019-05-12T03:54:41.352Z,55.00
2019-05-12T03:57:15.280Z,54.90
2019-05-12T03:59:49.163Z,55.00
2019-05-12T04:02:25.115Z,55.10
2019-05-12T04:04:58.449Z,55.20
2019-05-12T04:07:34.464Z,55.30
2019-05-12T04:10:07.751Z,55.40
2019-05-12T04:12:44.620Z,55.60
2019-05-12T04:15:17.497Z,55.70
2019-05-12T04:17:54.103Z,55.80
2019-05-12T04:20:26.482Z,55.90
2019-05-12T04:23:00.230Z,56.00
2019-05-12T04:25:47.670Z,56.00
2019-05-12T04:28:09.304Z,56.10
2019-05-12T04:30:44.516Z,56.20
2019-05-12T04:33:18.557Z,56.10
2019-05-12T04:35:55.182Z,56.20
2019-05-12T04:38:27.646Z,56.30
2019-05-12T04:41:01.393Z,56.40
2019-05-12T04:43:35.409Z,56.50
2019-05-12T04:46:09.275Z,56.50
2019-05-12T04:48:45.247Z,56.50
2019-05-12T04:51:18.360Z,56.50
2019-05-12T04:53:54.906Z,56.30
2019-05-12T04:56:27.980Z,56.20
2019-05-12T04:59:04.720Z,56.30
2019-05-12T05:01:37.020Z,56.00
2019-05-12T05:04:10.723Z,55.60
2019-05-12T05:06:45.026Z,55.20
2019-05-12T05:09:18.978Z,55.10
2019-05-12T05:11:54.340Z,55.10
2019-05-12T05:14:28.195Z,54.80
2019-05-12T05:17:05.088Z,54.40
2019-05-12T05:19:37.265Z,53.80
2019-05-12T05:22:13.578Z,53.20
2019-05-12T05:24:46.456Z,52.60
2019-05-12T05:27:24.663Z,51.90
2019-05-12T05:29:58.120Z,51.20
2019-05-12T05:32:33.914Z,50.60
2019-05-12T05:35:07.846Z,50.00
2019-05-12T05:37:44.093Z,49.20
2019-05-12T05:40:19.877Z,48.50
2019-05-12T05:42:54.266Z,47.70
2019-05-12T05:45:28.108Z,46.90
2019-05-12T05:48:05.584Z,46.40
2019-05-12T05:50:37.302Z,45.90
2019-05-12T05:53:17.531Z,45.50
2019-05-12T05:55:50.455Z,44.80
2019-05-12T05:58:25.907Z,44.00
2019-05-12T06:01:03.127Z,43.60
2019-05-12T06:03:33.907Z,43.30
2019-05-12T06:06:12.164Z,43.40
2019-05-12T06:08:44.282Z,43.80
2019-05-12T06:11:26.505Z,44.30
2019-05-12T06:13:53.630Z,44.40
2019-05-12T06:16:27.365Z,44.50
2019-05-12T06:19:03.302Z,45.30
2019-05-12T06:21:38.349Z,44.60
2019-05-12T06:24:15.311Z,44.30
2019-05-12T06:26:59.921Z,43.80
2019-05-12T06:29:24.919Z,43.40
2019-05-12T06:32:00.089Z,42.70
2019-05-12T06:34:34.276Z,41.90
2019-05-12T06:37:11.824Z,41.10
2019-05-12T06:39:43.630Z,40.60
2019-05-12T06:42:17.423Z,41.00
2019-05-12T06:44:55.028Z,40.20
2019-05-12T06:47:26.552Z,40.30
2019-05-12T06:50:00.228Z,40.60
2019-05-12T06:52:38.489Z,41.40
2019-05-12T06:55:09.209Z,42.40
2019-05-12T06:57:45.943Z,43.30
2019-05-12T07:00:22.240Z,43.50
2019-05-12T07:02:55.349Z,42.90
2019-05-12T07:05:33.769Z,42.30
2019-05-12T07:08:04.950Z,41.90
2019-05-12T07:10:43.395Z,42.00
2019-05-12T07:13:22.820Z,42.50
2019-05-12T07:15:49.493Z,42.70
2019-05-12T07:18:31.739Z,42.70
2019-05-12T07:20:58.630Z,42.20
2019-05-12T07:23:33.735Z,41.60
2019-05-12T07:26:17.588Z,40.90
2019-05-12T07:28:43.410Z,40.30
2019-05-12T07:31:17.704Z,39.70
2019-05-12T07:33:54.183Z,39.10
2019-05-12T07:36:28.481Z,38.50
2019-05-12T07:39:06.203Z,37.20
2019-05-12T07:41:42.311Z,37.10
2019-05-12T07:44:21.990Z,36.60
2019-05-12T07:46:54.294Z,36.00
2019-05-12T07:49:34.290Z,36.80
2019-05-12T07:52:03.767Z,35.80
2019-05-12T07:54:39.485Z,35.30
2019-05-12T07:57:17.402Z,35.30
2019-05-12T07:59:48.429Z,35.30
2019-05-12T08:02:23.209Z,35.10
2019-05-12T08:04:57.427Z,34.50
2019-05-12T08:07:31.083Z,34.70
2019-05-12T08:10:07.154Z,34.70
2019-05-12T08:12:41.320Z,35.10
2019-05-12T08:15:15.493Z,35.40
2019-05-12T08:17:49.263Z,35.70
2019-05-12T08:20:24.462Z,36.50
2019-05-12T08:23:05.880Z,37.60
2019-05-12T08:25:36.930Z,39.20
2019-05-12T08:28:15.465Z,38.80
2019-05-12T08:30:52.021Z,38.90
2019-05-12T08:33:23.863Z,37.90
2019-05-12T08:36:05.512Z,37.00
2019-05-12T08:38:33.699Z,36.20
2019-05-12T08:41:07.463Z,35.70
2019-05-12T08:43:48.118Z,35.50
2019-05-12T08:46:16.775Z,35.00
2019-05-12T08:48:51.638Z,34.90
2019-05-12T08:51:26.224Z,35.20
2019-05-12T08:54:07.669Z,35.90
2019-05-12T08:56:35.399Z,35.90
2019-05-12T08:59:09.694Z,36.00
2019-05-12T09:01:44.553Z,36.10
2019-05-12T09:04:18.516Z,36.50
2019-05-12T09:06:56.395Z,37.10
2019-05-12T09:09:28.718Z,37.70
2019-05-12T09:12:03.611Z,38.10
2019-05-12T09:14:41.395Z,38.60
2019-05-12T09:17:23.231Z,38.30
2019-05-12T09:20:17.002Z,37.80
2019-05-12T09:23:13.449Z,37.40
2019-05-12T09:26:04.856Z,37.30
2019-05-12T09:28:47.357Z,37.00
2019-05-12T09:31:19.519Z,36.30
2019-05-12T09:33:54.564Z,35.90
2019-05-12T09:36:27.605Z,34.60
2019-05-12T09:39:02.072Z,33.40
2019-05-12T09:41:42.766Z,32.80
2019-05-12T09:44:13.371Z,32.70
2019-05-12T09:46:47.265Z,32.60
2019-05-12T09:49:22.773Z,32.60
2019-05-12T09:51:56.463Z,32.30
2019-05-12T09:54:35.540Z,32.20
2019-05-12T09:57:05.664Z,31.60
2019-05-12T09:59:39.464Z,31.00
2019-05-12T10:02:16.537Z,30.60
2019-05-12T10:04:50.240Z,30.60
2019-05-12T10:07:24.135Z,30.90
2019-05-12T10:09:59.214Z,30.20
2019-05-12T10:12:38.648Z,30.00
2019-05-12T10:15:10.069Z,30.20
2019-05-12T10:17:43.848Z,30.50
2019-05-12T10:20:17.809Z,30.80
2019-05-12T10:22:54.152Z,31.20
2019-05-12T10:25:28.377Z,31.90
2019-05-12T10:28:11.062Z,31.70
2019-05-12T10:30:38.118Z,31.40
2019-05-12T10:33:13.783Z,31.30
2019-05-12T10:35:47.276Z,31.00
2019-05-12T10:38:21.049Z,30.90
2019-05-12T10:40:54.790Z,31.00
2019-05-12T10:43:28.530Z,30.40
2019-05-12T10:46:04.188Z,30.10
2019-05-12T10:48:37.673Z,30.30
2019-05-12T10:51:11.429Z,30.40
2019-05-12T10:53:48.791Z,30.00
2019-05-12T10:56:20.560Z,29.60
2019-05-12T10:58:54.382Z,29.60
2019-05-12T11:01:28.170Z,29.50
2019-05-12T11:04:03.860Z,29.30
2019-05-12T11:06:39.763Z,29.40
2019-05-12T11:09:14.065Z,29.40
2019-05-12T11:11:48.032Z,29.40
2019-05-12T11:14:26.310Z,29.50
2019-05-12T11:16:57.112Z,29.60
2019-05-12T11:19:30.891Z,29.60
2019-05-12T11:22:04.545Z,29.60
2019-05-12T11:24:38.471Z,28.90
2019-05-12T11:27:13.461Z,28.60
2019-05-12T11:29:49.609Z,29.00
2019-05-12T11:32:23.289Z,29.50
2019-05-12T11:34:57.117Z,29.40
2019-05-12T11:37:30.898Z,29.00
2019-05-12T11:40:05.021Z,29.20
2019-05-12T11:42:38.817Z,29.50
2019-05-12T11:45:13.621Z,29.30
2019-05-12T11:47:47.997Z,29.20
2019-05-12T11:50:21.969Z,29.30
2019-05-12T11:52:55.720Z,29.30
2019-05-12T11:55:31.782Z,29.20
2019-05-12T11:58:11.225Z,29.40
2019-05-12T12:00:40.550Z,29.30
2019-05-12T12:03:17.886Z,28.80
2019-05-12T12:05:49.740Z,28.60
2019-05-12T12:08:26.256Z,29.10
2019-05-12T12:10:58.878Z,29.10
2019-05-12T12:13:33.675Z,29.30
2019-05-12T12:16:11.120Z,29.40
2019-05-12T12:18:46.680Z,29.00
2019-05-12T12:21:18.458Z,28.90
2019-05-12T12:23:53.451Z,29.00
2019-05-12T12:26:30.292Z,29.00
2019-05-12T12:29:03.376Z,29.00
2019-05-12T12:31:38.785Z,28.80
2019-05-12T12:34:17.165Z,28.60
2019-05-12T12:36:48.266Z,28.70
2019-05-12T12:39:23.753Z,28.50
2019-05-12T12:42:00.398Z,28.70
2019-05-12T12:44:34.144Z,28.80
2019-05-12T12:47:08.277Z,28.70
2019-05-12T12:49:45.325Z,28.40
2019-05-12T12:52:17.838Z,28.40
2019-05-12T12:54:51.616Z,29.10
2019-05-12T12:57:25.437Z,29.50
2019-05-12T12:59:59.218Z,29.70
2019-05-12T13:02:33.858Z,29.80
2019-05-12T13:05:07.982Z,30.00
2019-05-12T13:07:43.870Z,30.10
2019-05-12T13:10:17.396Z,30.10
2019-05-12T13:12:56.545Z,30.00
2019-05-12T13:15:26.787Z,30.10
2019-05-12T13:18:00.499Z,29.70
2019-05-12T13:20:34.425Z,29.70
2019-05-12T13:23:08.260Z,29.50
2019-05-12T13:25:50.085Z,29.80
2019-05-12T13:28:18.968Z,30.00
2019-05-12T13:31:06.822Z,30.00
2019-05-12T13:33:28.918Z,29.90
2019-05-12T13:36:04.281Z,29.70
2019-05-12T13:38:40.398Z,29.80
2019-05-12T13:41:18.147Z,29.80
2019-05-12T13:43:54.466Z,30.00
2019-05-12T13:46:25.097Z,30.40
2019-05-12T13:48:59.947Z,30.60
2019-05-12T13:51:33.873Z,30.60
2019-05-12T13:54:07.696Z,30.60
2019-05-12T13:56:44.091Z,30.50
2019-05-12T13:59:20.978Z,30.40
2019-05-12T14:01:53.917Z,30.40
2019-05-12T14:04:29.408Z,30.10
2019-05-12T14:07:03.944Z,30.10
2019-05-12T14:09:38.068Z,30.50
2019-05-12T14:12:13.557Z,30.60
2019-05-12T14:14:47.331Z,30.40
2019-05-12T14:17:23.386Z,30.50
2019-05-12T14:19:56.548Z,30.80
2019-05-12T14:22:30.348Z,30.60
2019-05-12T14:25:05.565Z,30.00
2019-05-12T14:27:39.535Z,30.00
2019-05-12T14:30:14.796Z,30.40
2019-05-12T14:32:52.525Z,30.50
2019-05-12T14:35:24.177Z,30.70
2019-05-12T14:37:57.978Z,30.40
2019-05-12T14:40:31.942Z,30.60
2019-05-12T14:43:10.477Z,31.00
2019-05-12T14:45:43.860Z,30.90
2019-05-12T14:48:16.854Z,30.70
2019-05-12T14:50:50.658Z,31.00
2019-05-12T14:53:24.504Z,31.40
2019-05-12T14:55:58.308Z,31.80
2019-05-12T14:58:33.831Z,31.70
2019-05-12T15:01:07.528Z,31.30
2019-05-12T15:03:47.144Z,31.20
2019-05-12T15:06:19.391Z,31.20
2019-05-12T15:08:56.193Z,31.00
2019-05-12T15:11:29.993Z,31.30
2019-05-12T15:14:04.312Z,31.30
2019-05-12T15:16:40.704Z,31.70
2019-05-12T15:19:14.062Z,32.00
2019-05-12T15:21:47.859Z,32.20
2019-05-12T15:24:21.722Z,32.40
2019-05-12T15:26:57.531Z,32.40
2019-05-12T15:29:30.891Z,32.20
2019-05-12T15:32:04.661Z,32.30
2019-05-12T15:34:38.422Z,32.30
2019-05-12T15:37:12.238Z,32.30
2019-05-12T15:39:46.059Z,32.30
2019-05-12T15:42:19.818Z,32.40
2019-05-12T15:44:53.803Z,32.60
2019-05-12T15:47:30.026Z,32.50
2019-05-12T15:50:04.019Z,32.60
2019-05-12T15:52:42.029Z,32.40
2019-05-12T15:55:13.873Z,32.30
2019-05-12T15:57:47.729Z,32.30
2019-05-12T16:00:24.134Z,32.40
2019-05-12T16:02:57.076Z,32.40
2019-05-12T16:05:31.222Z,32.30
2019-05-12T16:08:05.117Z,32.50
2019-05-12T16:10:38.941Z,32.60
2019-05-12T16:13:15.519Z,32.50
2019-05-12T16:15:49.282Z,32.70
2019-05-12T16:18:26.709Z,32.90
2019-05-12T16:21:04.437Z,33.00
2019-05-12T16:23:34.474Z,33.30
2019-05-12T16:26:12.572Z,33.40
2019-05-12T16:28:44.130Z,33.10
2019-05-12T16:31:18.055Z,33.20
2019-05-12T16:33:52.942Z,33.20
2019-05-12T16:36:27.307Z,33.40
2019-05-12T16:39:01.108Z,33.60
2019-05-12T16:41:35.029Z,33.90
2019-05-12T16:44:17.324Z,34.20
2019-05-12T16:46:44.558Z,34.30
2019-05-12T16:49:18.410Z,34.30
2019-05-12T16:51:54.210Z,34.60
2019-05-12T16:54:27.804Z,34.70
2019-05-12T16:57:06.353Z,34.60
2019-05-12T16:59:36.936Z,34.60
2019-05-12T17:02:10.778Z,34.50
2019-05-12T17:04:44.499Z,34.80
2019-05-12T17:07:20.790Z,35.10
2019-05-12T17:09:54.354Z,35.30
2019-05-12T17:12:31.907Z,35.40
2019-05-12T17:15:04.209Z,35.50
2019-05-12T17:17:38.463Z,35.60
2019-05-12T17:20:13.916Z,35.70
2019-05-12T17:22:54.410Z,35.70
2019-05-12T17:25:24.852Z,35.80
2019-05-12T17:28:03.799Z,36.10
2019-05-12T17:30:34.494Z,36.50
2019-05-12T17:33:13.405Z,36.80
2019-05-12T17:35:44.662Z,36.90
2019-05-12T17:38:20.322Z,37.00
2019-05-12T17:40:58.941Z,37.10
2019-05-12T17:43:30.817Z,37.30
2019-05-12T17:46:04.739Z,37.40
2019-05-12T17:48:42.702Z,37.50
2019-05-12T17:51:14.047Z,37.60
2019-05-12T17:53:47.727Z,37.70
2019-05-12T17:56:25.288Z,37.80
2019-05-12T17:58:56.968Z,37.90
2019-05-12T18:01:31.603Z,38.00
2019-05-12T18:04:06.227Z,38.20
2019-05-12T18:06:39.968Z,38.40
2019-05-12T18:09:15.656Z,38.60
2019-05-12T18:11:54.277Z,38.70
2019-05-12T18:14:27.811Z,38.70
2019-05-12T18:17:03.938Z,38.80
2019-05-12T18:19:35.806Z,38.80
2019-05-12T18:22:09.607Z,38.80
2019-05-12T18:24:49.291Z,38.90
2019-05-12T18:27:18.907Z,38.90
2019-05-12T18:29:53.641Z,38.90
2019-05-12T18:32:27.710Z,39.00
2019-05-12T18:35:04.038Z,39.10
2019-05-12T18:37:36.968Z,39.20
2019-05-12T18:40:10.920Z,39.30
2019-05-12T18:42:45.028Z,39.30
2019-05-12T18:45:18.888Z,39.30
2019-05-12T18:47:53.886Z,39.50
2019-05-12T18:50:31.462Z,39.60
2019-05-12T18:53:03.468Z,39.80
2019-05-12T18:55:40.408Z,39.90
2019-05-12T18:58:14.866Z,40.00
2019-05-12T19:00:48.237Z,40.20
2019-05-12T19:03:21.938Z,40.50
2019-05-12T19:05:58.145Z,40.60
2019-05-12T19:08:31.159Z,40.90
2019-05-12T19:11:19.009Z,41.20
2019-05-12T19:13:43.158Z,41.30
2019-05-12T19:16:16.160Z,41.50
2019-05-12T19:18:49.884Z,41.50
2019-05-12T19:21:23.824Z,41.70
2019-05-12T19:23:57.659Z,41.90
2019-05-12T19:26:32.883Z,42.10
2019-05-12T19:29:06.977Z,42.30
2019-05-12T19:31:42.414Z,42.30
2019-05-12T19:34:22.437Z,42.60
2019-05-12T19:36:51.679Z,42.80
2019-05-12T19:39:25.581Z,42.90
2019-05-12T19:41:59.599Z,43.10
2019-05-12T19:44:34.273Z,43.40
2019-05-12T19:47:08.739Z,43.50
2019-05-12T19:49:47.961Z,43.70
2019-05-12T19:52:19.426Z,43.90
2019-05-12T19:54:53.533Z,44.00
2019-05-12T19:57:27.329Z,44.30
2019-05-12T20:00:01.405Z,44.50
2019-05-12T20:02:35.159Z,44.70
2019-05-12T20:05:09.238Z,44.90
2019-05-12T20:07:44.583Z,45.00
2019-05-12T20:10:18.759Z,45.30
2019-05-12T20:12:54.868Z,45.30
2019-05-12T20:15:30.233Z,45.50
2019-05-12T20:18:04.398Z,45.70
2019-05-12T20:20:41.687Z,45.80
2019-05-12T20:23:14.301Z,46.00
2019-05-12T20:25:48.083Z,46.10
2019-05-12T20:28:24.183Z,46.20
2019-05-12T20:31:02.747Z,46.40
2019-05-12T20:33:34.415Z,46.50
2019-05-12T20:36:08.351Z,46.80
2019-05-12T20:38:44.208Z,46.80
2019-05-12T20:41:22.603Z,47.00
2019-05-12T20:43:52.721Z,47.20
2019-05-12T20:46:26.354Z,47.30
2019-05-12T20:49:01.080Z,47.40
2019-05-12T20:51:35.329Z,47.50
2019-05-12T20:54:14.003Z,47.60
2019-05-12T20:56:44.381Z,47.80
2019-05-12T20:59:22.027Z,47.90
2019-05-12T21:01:53.618Z,48.10
2019-05-12T21:04:33.330Z,48.10
2019-05-12T21:07:04.619Z,48.10
2019-05-12T21:09:38.332Z,48.20
2019-05-12T21:12:13.828Z,48.40
2019-05-12T21:14:51.581Z,48.50
2019-05-12T21:17:38.960Z,48.60
2019-05-12T21:19:59.470Z,48.70
2019-05-12T21:22:34.158Z,48.80
2019-05-12T21:25:10.467Z,48.90
2019-05-12T21:27:47.673Z,48.90
2019-05-12T21:30:19.583Z,49.00
2019-05-12T21:33:01.155Z,49.20
2019-05-12T21:35:32.084Z,49.10
2019-05-12T21:38:04.449Z,49.40
2019-05-12T21:40:38.140Z,49.50
2019-05-12T21:43:13.510Z,49.70
2019-05-12T21:45:47.572Z,49.70
2019-05-12T21:48:28.641Z,49.80
2019-05-12T21:50:56.620Z,49.90
2019-05-12T21:53:30.293Z,50.00
2019-05-12T21:56:05.554Z,50.00
2019-05-12T21:58:45.324Z,50.00
2019-05-12T22:01:15.851Z,50.10
2019-05-12T22:03:57.981Z,50.20
2019-05-12T22:06:25.148Z,50.50
2019-05-12T22:09:01.157Z,50.60
2019-05-12T22:11:34.858Z,50.80
2019-05-12T22:14:08.704Z,50.90
2019-05-12T22:16:44.320Z,51.00
2019-05-12T22:19:17.921Z,51.00
2019-05-12T22:21:53.685Z,50.90
2019-05-12T22:24:33.976Z,51.00
2019-05-12T22:27:05.027Z,51.10
2019-05-12T22:29:38.220Z,51.10
2019-05-12T22:32:13.686Z,51.10
2019-05-12T22:34:47.264Z,51.20
2019-05-12T22:37:20.967Z,51.20
2019-05-12T22:39:54.834Z,51.30
2019-05-12T22:42:28.678Z,51.40
2019-05-12T22:45:03.823Z,51.50
2019-05-12T22:47:38.084Z,51.50
2019-05-12T22:50:13.629Z,51.60
2019-05-12T22:52:49.370Z,51.80
2019-05-12T22:55:27.822Z,51.90
2019-05-12T22:57:58.468Z,51.90
2019-05-12T23:00:34.218Z,52.10
2019-05-12T23:03:11.638Z,52.10
2019-05-12T23:05:43.245Z,52.00
2019-05-12T23:08:17.097Z,51.90
2019-05-12T23:10:53.139Z,52.00
2019-05-12T23:13:26.248Z,52.00
2019-05-12T23:15:59.982Z,52.00
2019-05-12T23:18:33.911Z,52.10
2019-05-12T23:21:13.272Z,52.10
2019-05-12T23:23:43.561Z,52.30
2019-05-12T23:26:17.316Z,52.30
2019-05-12T23:28:53.348Z,52.40
2019-05-12T23:31:30.099Z,52.30
2019-05-12T23:34:06.276Z,52.50
2019-05-12T23:36:39.217Z,52.50
2019-05-12T23:39:14.268Z,52.50
2019-05-12T23:41:47.962Z,52.60
2019-05-12T23:44:23.918Z,52.60
2019-05-12T23:46:57.556Z,52.70
2019-05-12T23:49:33.109Z,52.80
2019-05-12T23:52:06.767Z,52.90
2019-05-12T23:54:40.666Z,53.00
2019-05-12T23:57:15.721Z,53.10
2019-05-12T23:59:49.643Z,53.20
